createdAt,value
2022-09-21T00:01:48.556Z,4.47
2022-09-21T00:04:14.863Z,5.57
2022-09-21T00:06:41.222Z,4.20
2022-09-21T00:09:09.304Z,2.30
2022-09-21T00:11:35.806Z,4.13
2022-09-21T00:14:05.406Z,3.90
2022-09-21T00:16:32.158Z,3.67
2022-09-21T00:18:59.175Z,2.73
2022-09-21T00:21:25.797Z,3.60
2022-09-21T00:23:52.161Z,4.67
2022-09-21T00:26:20.310Z,3.30
2022-09-21T00:28:46.970Z,3.83
2022-09-21T00:31:14.672Z,4.83
2022-09-21T00:33:41.557Z,2.17
2022-09-21T00:36:09.727Z,2.83
2022-09-21T00:38:36.480Z,4.47
2022-09-21T00:41:03.676Z,1.80
2022-09-21T00:43:30.100Z,3.43
2022-09-21T00:46:05.663Z,1.80
2022-09-21T00:48:32.569Z,2.10
2022-09-21T00:51:01.750Z,3.73
2022-09-21T00:53:28.411Z,3.23
2022-09-21T00:55:56.268Z,3.23
2022-09-21T00:58:27.668Z,2.03
2022-09-21T01:00:55.230Z,2.37
2022-09-21T01:03:21.578Z,2.50
2022-09-21T01:05:47.887Z,6.87
2022-09-21T01:08:15.347Z,3.43
2022-09-21T01:10:57.906Z,4.17
2022-09-21T01:13:37.634Z,4.47
2022-09-21T01:16:13.875Z,6.93
2022-09-21T01:18:40.243Z,4.83
2022-09-21T01:21:13.248Z,7.00
2022-09-21T01:23:39.843Z,4.17
2022-09-21T01:26:06.166Z,3.63
2022-09-21T01:28:56.460Z,4.43
2022-09-21T01:31:25.583Z,3.57
2022-09-21T01:33:54.331Z,5.80
2022-09-21T01:36:24.750Z,6.27
2022-09-21T01:38:53.163Z,7.47
2022-09-21T01:41:22.335Z,4.23
2022-09-21T01:43:51.526Z,5.03
2022-09-21T01:46:19.699Z,3.53
2022-09-21T01:48:52.043Z,3.53
2022-09-21T01:51:20.028Z,4.73
2022-09-21T01:53:52.714Z,2.33
2022-09-21T01:56:23.808Z,3.00
2022-09-21T01:58:52.391Z,4.27
2022-09-21T02:01:21.310Z,3.27
2022-09-21T02:03:59.194Z,2.63
2022-09-21T02:06:27.051Z,2.77
2022-09-21T02:08:53.523Z,3.57
2022-09-21T02:11:19.849Z,2.00
2022-09-21T02:13:48.502Z,4.23
2022-09-21T02:16:29.232Z,4.47
2022-09-21T02:19:11.218Z,3.33
2022-09-21T02:21:37.512Z,3.10
2022-09-21T02:24:21.890Z,2.50
2022-09-21T02:26:54.200Z,2.90
2022-09-21T02:29:28.510Z,3.50
2022-09-21T02:31:59.175Z,2.20
2022-09-21T02:34:25.470Z,3.33
2022-09-21T02:36:56.944Z,1.80
2022-09-21T02:39:31.830Z,2.00
2022-09-21T02:42:01.440Z,4.43
2022-09-21T02:44:33.716Z,7.17
2022-09-21T02:47:03.163Z,3.77
2022-09-21T02:49:33.688Z,2.33
2022-09-21T02:52:03.388Z,3.17
2022-09-21T02:54:31.144Z,4.27
2022-09-21T02:56:57.884Z,1.87
2022-09-21T02:59:24.220Z,2.03
2022-09-21T03:01:51.279Z,2.43
2022-09-21T03:04:18.064Z,3.93
2022-09-21T03:06:44.400Z,3.40
2022-09-21T03:09:10.724Z,2.57
2022-09-21T03:11:37.776Z,2.03
2022-09-21T03:14:08.925Z,3.10
2022-09-21T03:16:35.953Z,3.80
2022-09-21T03:19:02.364Z,1.90
2022-09-21T03:21:29.672Z,2.97
2022-09-21T03:23:55.991Z,1.70
2022-09-21T03:26:22.472Z,2.43
2022-09-21T03:28:49.915Z,2.37
2022-09-21T03:31:16.579Z,3.10
2022-09-21T03:33:43.007Z,2.70
2022-09-21T03:36:10.090Z,2.90
2022-09-21T03:38:37.676Z,3.87
2022-09-21T03:41:04.547Z,6.87
2022-09-21T03:43:30.916Z,1.60
2022-09-21T03:45:57.880Z,2.57
2022-09-21T03:48:24.233Z,4.50
2022-09-21T03:50:50.680Z,3.00
2022-09-21T03:53:17.194Z,2.47
2022-09-21T03:55:43.886Z,2.13
2022-09-21T03:58:10.248Z,2.63
2022-09-21T04:00:36.689Z,2.50
2022-09-21T04:03:03.038Z,2.23
2022-09-21T04:05:29.496Z,6.00
2022-09-21T04:07:56.511Z,4.20
2022-09-21T04:10:32.668Z,5.47
2022-09-21T04:13:02.607Z,4.33
2022-09-21T04:15:29.506Z,7.77
2022-09-21T04:17:56.300Z,6.83
2022-09-21T04:20:22.691Z,6.07
2022-09-21T04:22:49.039Z,4.70
2022-09-21T04:25:15.675Z,8.47
2022-09-21T04:27:42.229Z,6.37
2022-09-21T04:30:09.989Z,5.23
2022-09-21T04:32:36.298Z,4.43
2022-09-21T04:35:02.790Z,5.93
2022-09-21T04:37:29.134Z,7.67
2022-09-21T04:39:55.842Z,4.67
2022-09-21T04:42:22.171Z,8.13
2022-09-21T04:44:48.495Z,7.90
2022-09-21T04:47:15.118Z,8.23
2022-09-21T04:49:41.421Z,7.57
2022-09-21T04:52:08.069Z,2.87
2022-09-21T04:54:34.359Z,6.53
2022-09-21T04:57:00.758Z,5.10
2022-09-21T04:59:27.081Z,6.83
2022-09-21T05:01:53.644Z,6.50
2022-09-21T05:04:20.003Z,4.57
2022-09-21T05:06:46.376Z,4.97
2022-09-21T05:09:31.407Z,4.80
2022-09-21T05:11:57.911Z,6.43
2022-09-21T05:14:24.229Z,8.77
2022-09-21T05:16:50.646Z,3.43
2022-09-21T05:19:17.250Z,3.87
2022-09-21T05:21:43.608Z,5.77
2022-09-21T05:24:10.032Z,3.17
2022-09-21T05:26:37.601Z,5.23
2022-09-21T05:29:04.185Z,6.30
2022-09-21T05:31:51.579Z,3.73
2022-09-21T05:34:24.037Z,3.93
2022-09-21T05:37:06.323Z,5.47
2022-09-21T05:39:32.798Z,5.07
2022-09-21T05:41:59.250Z,3.27
2022-09-21T05:44:25.826Z,7.27
2022-09-21T05:46:56.077Z,6.27
2022-09-21T05:49:29.040Z,5.50
2022-09-21T05:52:04.787Z,5.00
2022-09-21T05:54:43.535Z,7.53
2022-09-21T05:57:16.643Z,7.53
2022-09-21T05:59:45.782Z,7.07
2022-09-21T06:02:30.492Z,4.63
2022-09-21T06:04:57.714Z,6.83
2022-09-21T06:07:24.177Z,5.37
2022-09-21T06:09:50.527Z,5.00
2022-09-21T06:12:16.903Z,6.13
2022-09-21T06:14:44.363Z,4.77
2022-09-21T06:17:10.739Z,4.77
2022-09-21T06:19:37.056Z,5.63
2022-09-21T06:22:03.436Z,3.93
2022-09-21T06:24:29.758Z,4.57
2022-09-21T06:26:56.265Z,5.00
2022-09-21T06:29:23.659Z,6.73
2022-09-21T06:31:51.167Z,5.40
2022-09-21T06:34:17.899Z,5.30
2022-09-21T06:36:45.574Z,3.43
2022-09-21T06:39:12.390Z,6.00
2022-09-21T06:41:38.731Z,4.47
2022-09-21T06:44:09.619Z,6.33
2022-09-21T06:46:35.984Z,11.57
2022-09-21T06:49:02.283Z,12.00
2022-09-21T06:51:28.639Z,8.70
2022-09-21T06:53:56.404Z,9.27
2022-09-21T06:56:23.036Z,6.43
2022-09-21T06:58:49.354Z,11.33
2022-09-21T07:01:16.195Z,9.37
2022-09-21T07:03:43.212Z,12.60
2022-09-21T07:06:15.481Z,8.37
2022-09-21T07:11:28.900Z,7.80
2022-09-21T07:13:56.078Z,9.43
2022-09-21T07:16:23.320Z,6.30
2022-09-21T07:18:50.085Z,6.13
2022-09-21T07:21:16.796Z,7.97
2022-09-21T07:23:43.303Z,6.57
2022-09-21T07:26:10.938Z,8.37
2022-09-21T07:28:37.328Z,7.20
2022-09-21T07:31:08.661Z,5.33
2022-09-21T07:33:36.285Z,6.57
2022-09-21T07:36:09.813Z,8.40
2022-09-21T07:38:37.410Z,6.07
2022-09-21T07:41:04.231Z,5.40
2022-09-21T07:43:30.731Z,5.87
2022-09-21T07:45:57.107Z,6.80
2022-09-21T07:48:24.192Z,6.53
2022-09-21T07:50:50.554Z,4.60
2022-09-21T07:53:17.567Z,7.27
2022-09-21T07:55:44.420Z,6.63
2022-09-21T07:58:29.438Z,7.93
2022-09-21T08:00:55.883Z,6.40
2022-09-21T08:03:22.297Z,5.50
2022-09-21T08:05:48.664Z,4.83
2022-09-21T08:08:16.834Z,6.30
2022-09-21T08:10:43.176Z,3.50
2022-09-21T08:13:09.550Z,5.10
2022-09-21T08:15:50.522Z,8.00
2022-09-21T08:18:16.937Z,5.77
2022-09-21T08:20:44.336Z,3.83
2022-09-21T08:23:11.824Z,3.53
2022-09-21T08:25:38.187Z,3.90
2022-09-21T08:28:09.488Z,5.13
2022-09-21T08:30:36.383Z,5.83
2022-09-21T08:33:03.541Z,4.80
2022-09-21T08:35:29.864Z,3.23
2022-09-21T08:37:56.300Z,4.50
2022-09-21T08:40:22.869Z,1.63
2022-09-21T08:42:55.426Z,2.40
2022-09-21T08:45:22.056Z,2.30
2022-09-21T08:47:50.177Z,1.93
2022-09-21T08:50:19.319Z,5.60
2022-09-21T08:52:47.534Z,4.13
2022-09-21T08:55:18.489Z,1.50
2022-09-21T08:57:44.852Z,1.97
2022-09-21T09:00:15.438Z,2.30
2022-09-21T09:02:50.998Z,2.13
2022-09-21T09:05:18.338Z,2.07
2022-09-21T09:07:57.029Z,2.17
2022-09-21T09:10:26.152Z,1.87
2022-09-21T09:13:12.803Z,2.43
2022-09-21T09:15:46.856Z,2.13
2022-09-21T09:18:13.337Z,2.30
2022-09-21T09:20:40.864Z,2.70
2022-09-21T09:23:33.646Z,2.73
2022-09-21T09:26:04.877Z,2.77
2022-09-21T09:28:31.187Z,1.53
2022-09-21T09:31:04.025Z,1.90
2022-09-21T09:33:43.094Z,2.00
2022-09-21T09:36:11.019Z,1.73
2022-09-21T09:38:39.531Z,2.40
2022-09-21T09:41:12.313Z,0.83
2022-09-21T09:43:57.223Z,0.80
2022-09-21T09:46:31.288Z,2.27
2022-09-21T09:49:00.689Z,2.87
2022-09-21T09:51:27.027Z,2.80
2022-09-21T09:53:57.058Z,2.97
2022-09-21T09:56:23.755Z,3.03
2022-09-21T09:58:54.396Z,2.93
2022-09-21T10:01:37.265Z,1.23
2022-09-21T10:04:30.435Z,1.77
2022-09-21T10:06:56.871Z,2.30
2022-09-21T10:09:28.251Z,2.93
2022-09-21T10:12:02.341Z,8.80
2022-09-21T10:14:33.100Z,2.63
2022-09-21T10:17:03.519Z,1.37
2022-09-21T10:19:30.541Z,2.17
2022-09-21T10:21:58.616Z,2.37
2022-09-21T10:24:24.955Z,2.93
2022-09-21T10:27:03.268Z,5.90
2022-09-21T10:29:31.113Z,1.77
2022-09-21T10:32:04.995Z,1.70
2022-09-21T10:34:32.324Z,2.93
2022-09-21T10:36:59.983Z,1.30
2022-09-21T10:39:27.960Z,1.97
2022-09-21T10:41:57.854Z,1.90
2022-09-21T10:44:27.072Z,2.50
2022-09-21T10:46:53.900Z,1.60
2022-09-21T10:49:22.864Z,4.10
2022-09-21T10:51:50.541Z,1.23
2022-09-21T10:54:22.050Z,1.90
2022-09-21T10:56:52.974Z,2.80
2022-09-21T10:59:19.310Z,3.13
2022-09-21T11:01:46.601Z,1.73
2022-09-21T11:04:15.942Z,1.67
2022-09-21T11:06:44.805Z,3.27
2022-09-21T11:09:18.288Z,1.53
2022-09-21T11:11:57.571Z,1.90
2022-09-21T11:14:36.279Z,2.93
2022-09-21T11:17:15.185Z,1.87
2022-09-21T11:20:00.547Z,2.50
2022-09-21T11:22:32.858Z,1.90
2022-09-21T11:25:11.424Z,1.73
2022-09-21T11:27:40.202Z,2.70
2022-09-21T11:30:13.801Z,1.03
2022-09-21T11:32:50.038Z,2.20
2022-09-21T11:35:33.325Z,8.63
2022-09-21T11:37:59.626Z,5.97
2022-09-21T11:40:32.058Z,2.63
2022-09-21T11:42:58.375Z,2.73
2022-09-21T11:45:33.917Z,2.13
2022-09-21T11:48:19.396Z,1.03
2022-09-21T11:50:55.317Z,0.93
2022-09-21T11:53:40.351Z,1.13
2022-09-21T11:56:16.975Z,0.60
2022-09-21T11:58:48.569Z,1.23
2022-09-21T12:01:31.905Z,1.20
2022-09-21T12:04:19.854Z,1.67
2022-09-21T12:06:52.842Z,0.97
2022-09-21T12:09:31.107Z,0.80
2022-09-21T12:12:09.775Z,0.80
2022-09-21T12:14:43.391Z,0.90
2022-09-21T12:17:13.009Z,0.93
2022-09-21T12:19:46.030Z,0.83
2022-09-21T12:22:21.041Z,1.20
2022-09-21T12:24:49.857Z,8.17
2022-09-21T12:27:25.257Z,6.57
2022-09-21T12:29:53.781Z,4.83
2022-09-21T12:32:26.500Z,2.57
2022-09-21T12:34:57.604Z,6.20
2022-09-21T12:37:23.904Z,0.90
2022-09-21T12:40:02.032Z,1.13
2022-09-21T12:42:28.378Z,1.20
2022-09-21T12:44:56.937Z,0.63
2022-09-21T12:47:27.262Z,1.13
2022-09-21T12:49:57.476Z,1.90
2022-09-21T12:52:27.475Z,1.07
2022-09-21T12:54:59.139Z,0.80
2022-09-21T12:57:45.976Z,0.97
2022-09-21T13:00:22.241Z,1.63
2022-09-21T13:02:55.741Z,1.93
2022-09-21T13:05:28.274Z,0.60
2022-09-21T13:08:06.440Z,0.40
2022-09-21T13:10:54.671Z,0.40
2022-09-21T13:13:33.297Z,1.93
2022-09-21T13:16:00.631Z,0.77
2022-09-21T13:18:35.137Z,0.90
2022-09-21T13:21:14.941Z,1.00
2022-09-21T13:23:42.198Z,1.03
2022-09-21T13:26:10.299Z,0.67
2022-09-21T13:29:00.304Z,1.10
2022-09-21T13:31:40.920Z,1.50
2022-09-21T13:34:27.165Z,1.07
2022-09-21T13:37:23.680Z,1.07
2022-09-21T13:40:02.182Z,1.83
2022-09-21T13:42:34.870Z,0.70
2022-09-21T13:45:01.203Z,2.10
2022-09-21T13:47:30.517Z,0.80
2022-09-21T13:50:00.457Z,1.00
2022-09-21T13:52:27.197Z,1.20
2022-09-21T13:54:56.033Z,1.60
2022-09-21T13:57:34.908Z,0.40
2022-09-21T14:00:13.137Z,1.20
2022-09-21T14:02:39.530Z,0.57
2022-09-21T14:05:24.932Z,0.80
2022-09-21T14:08:17.684Z,2.67
2022-09-21T14:10:52.891Z,1.33
2022-09-21T14:13:31.807Z,1.00
2022-09-21T14:16:17.056Z,1.07
2022-09-21T14:18:46.427Z,0.93
2022-09-21T14:21:20.015Z,1.40
2022-09-21T14:24:05.219Z,1.97
2022-09-21T14:26:33.942Z,2.27
2022-09-21T14:29:06.712Z,2.27
2022-09-21T14:31:36.813Z,1.03
2022-09-21T14:34:04.147Z,1.20
2022-09-21T14:36:50.148Z,0.67
2022-09-21T14:39:19.282Z,2.20
2022-09-21T14:41:47.306Z,2.13
2022-09-21T14:44:21.048Z,1.63
2022-09-21T14:47:05.791Z,0.93
2022-09-21T14:49:50.541Z,1.00
2022-09-21T14:52:32.472Z,1.57
2022-09-21T14:54:59.825Z,3.83
2022-09-21T14:57:45.747Z,1.90
2022-09-21T15:00:28.200Z,0.60
2022-09-21T15:02:54.715Z,1.17
2022-09-21T15:05:37.731Z,0.97
2022-09-21T15:08:38.173Z,1.00
2022-09-21T15:11:23.114Z,1.40
2022-09-21T15:14:04.471Z,1.40
2022-09-21T15:16:41.206Z,1.33
2022-09-21T15:19:27.133Z,0.70
2022-09-21T15:21:54.924Z,1.37
2022-09-21T15:24:25.925Z,0.60
2022-09-21T15:26:55.680Z,0.80
2022-09-21T15:29:24.984Z,1.53
2022-09-21T15:31:51.779Z,1.27
2022-09-21T15:34:18.224Z,1.83
2022-09-21T15:36:44.832Z,0.70
2022-09-21T15:39:43.691Z,0.73
2022-09-21T15:42:10.325Z,1.10
2022-09-21T15:44:37.738Z,0.70
2022-09-21T15:47:06.599Z,0.63
2022-09-21T15:49:33.561Z,1.27
2022-09-21T15:52:03.233Z,0.93
2022-09-21T15:54:34.801Z,1.23
2022-09-21T15:57:07.892Z,2.50
2022-09-21T15:59:34.672Z,1.00
2022-09-21T16:02:10.266Z,1.13
2022-09-21T16:04:39.451Z,1.13
2022-09-21T16:07:07.063Z,0.80
2022-09-21T16:09:44.957Z,1.47
2022-09-21T16:12:28.609Z,0.60
2022-09-21T16:15:03.785Z,2.67
2022-09-21T16:17:35.584Z,0.87
2022-09-21T16:20:19.708Z,1.90
2022-09-21T16:22:47.751Z,0.57
2022-09-21T16:25:20.381Z,1.10
2022-09-21T16:27:55.433Z,4.57
2022-09-21T16:30:39.764Z,1.10
2022-09-21T16:33:24.579Z,1.47
2022-09-21T16:35:50.992Z,1.43
2022-09-21T16:38:17.463Z,1.77
2022-09-21T16:40:46.085Z,1.33
2022-09-21T16:43:12.938Z,1.17
2022-09-21T16:45:39.289Z,0.93
2022-09-21T16:48:07.855Z,0.90
2022-09-21T16:50:34.223Z,1.57
2022-09-21T16:53:00.562Z,1.30
2022-09-21T16:55:29.309Z,1.40
2022-09-21T16:57:56.216Z,1.43
2022-09-21T17:00:22.667Z,1.13
2022-09-21T17:02:49.393Z,1.17
2022-09-21T17:05:19.387Z,2.63
2022-09-21T17:07:55.976Z,2.50
2022-09-21T17:10:27.147Z,1.87
2022-09-21T17:12:53.901Z,1.20
2022-09-21T17:15:21.130Z,1.93
2022-09-21T17:17:47.440Z,0.90
2022-09-21T17:20:35.811Z,1.43
2022-09-21T17:23:03.176Z,2.87
2022-09-21T17:25:32.913Z,2.73
2022-09-21T17:27:59.655Z,2.97
2022-09-21T17:30:26.609Z,2.67
2022-09-21T17:32:53.119Z,5.63
2022-09-21T17:35:22.216Z,7.87
2022-09-21T17:37:48.524Z,6.87
2022-09-21T17:40:15.165Z,4.20
2022-09-21T17:42:43.025Z,4.13
2022-09-21T17:45:28.176Z,4.07
2022-09-21T17:47:54.627Z,6.87
2022-09-21T17:50:23.799Z,3.80
2022-09-21T17:53:08.871Z,6.33
2022-09-21T17:55:35.434Z,4.50
2022-09-21T17:58:10.287Z,5.90
2022-09-21T18:00:42.616Z,3.00
2022-09-21T18:03:21.995Z,5.77
2022-09-21T18:05:50.707Z,5.00
2022-09-21T18:08:17.567Z,3.97
2022-09-21T18:10:49.026Z,3.67
2022-09-21T18:13:20.959Z,3.70
2022-09-21T18:15:56.760Z,4.10
2022-09-21T18:18:23.141Z,3.43
2022-09-21T18:20:57.719Z,2.93
2022-09-21T18:23:42.976Z,3.80
2022-09-21T18:26:15.492Z,4.17
2022-09-21T18:28:44.041Z,2.20
2022-09-21T18:31:32.623Z,2.47
2022-09-21T18:34:14.296Z,4.13
2022-09-21T18:36:59.485Z,5.27
2022-09-21T18:39:44.324Z,6.57
2022-09-21T18:42:50.695Z,6.00
2022-09-21T18:45:34.040Z,5.80
2022-09-21T18:48:19.648Z,6.47
2022-09-21T18:50:52.216Z,7.13
2022-09-21T18:53:25.546Z,4.67
2022-09-21T18:55:52.255Z,3.63
2022-09-21T18:58:18.792Z,3.00
2022-09-21T19:00:45.293Z,3.67
2022-09-21T19:03:19.146Z,2.33
2022-09-21T19:05:49.949Z,2.87
2022-09-21T19:08:31.689Z,2.60
2022-09-21T19:11:02.899Z,3.93
2022-09-21T19:13:50.142Z,4.03
2022-09-21T19:16:22.729Z,2.87
2022-09-21T19:18:49.106Z,2.97
2022-09-21T19:21:27.223Z,2.60
2022-09-21T19:23:58.841Z,4.47
2022-09-21T19:26:31.399Z,3.67
2022-09-21T19:29:10.140Z,4.20
2022-09-21T19:31:36.548Z,4.43
2022-09-21T19:34:12.311Z,3.40
2022-09-21T19:36:39.308Z,3.50
2022-09-21T19:39:05.864Z,4.40
2022-09-21T19:41:51.014Z,3.70
2022-09-21T19:44:35.847Z,3.80
2022-09-21T19:47:20.122Z,2.73
2022-09-21T19:49:53.933Z,2.53
2022-09-21T19:52:25.358Z,3.20
2022-09-21T19:55:10.536Z,3.77
2022-09-21T19:57:55.794Z,2.93
2022-09-21T20:00:24.018Z,3.87
2022-09-21T20:02:59.783Z,6.07
2022-09-21T20:05:45.694Z,2.70
2022-09-21T20:08:35.079Z,2.13
2022-09-21T20:11:15.100Z,3.70
2022-09-21T20:13:51.144Z,4.77
2022-09-21T20:16:20.546Z,3.97
2022-09-21T20:18:52.485Z,2.90
2022-09-21T20:21:22.215Z,3.63
2022-09-21T20:23:54.699Z,3.00
2022-09-21T20:26:23.820Z,4.73
2022-09-21T20:28:52.016Z,3.60
2022-09-21T20:31:19.407Z,5.73
2022-09-21T20:33:45.760Z,6.20
2022-09-21T20:36:12.830Z,4.37
2022-09-21T20:38:39.144Z,2.90
2022-09-21T20:41:09.292Z,3.60
2022-09-21T20:43:35.848Z,3.17
2022-09-21T20:46:03.500Z,2.90
2022-09-21T20:48:30.096Z,4.27
2022-09-21T20:50:57.125Z,3.73
2022-09-21T20:53:24.227Z,4.83
2022-09-21T20:55:57.569Z,2.43
2022-09-21T20:58:24.704Z,3.83
2022-09-21T21:00:54.086Z,3.70
2022-09-21T21:03:24.401Z,3.03
2022-09-21T21:05:50.732Z,3.27
2022-09-21T21:08:17.061Z,3.73
2022-09-21T21:10:46.821Z,4.07
2022-09-21T21:13:13.244Z,19.37
2022-09-21T21:15:39.636Z,6.47
2022-09-21T21:18:09.003Z,6.70
2022-09-21T21:20:35.580Z,8.53
2022-09-21T21:23:07.198Z,8.00
2022-09-21T21:25:34.314Z,6.20
2022-09-21T21:28:01.053Z,4.33
2022-09-21T21:30:27.415Z,2.80
2022-09-21T21:32:53.760Z,2.87
2022-09-21T21:35:20.198Z,3.33
2022-09-21T21:37:46.558Z,5.03
2022-09-21T21:40:12.949Z,3.63
2022-09-21T21:42:39.482Z,3.87
2022-09-21T21:45:06.051Z,3.60
2022-09-21T21:47:41.350Z,4.13
2022-09-21T21:50:08.498Z,2.87
2022-09-21T21:52:34.842Z,4.20
2022-09-21T21:55:01.695Z,21.63
2022-09-21T21:57:28.044Z,9.97
2022-09-21T21:59:54.360Z,10.17
2022-09-21T22:02:20.823Z,7.67
2022-09-21T22:04:47.158Z,4.73
2022-09-21T22:07:13.514Z,6.60
2022-09-21T22:09:40.643Z,4.87
2022-09-21T22:12:07.111Z,5.83
2022-09-21T22:14:33.434Z,6.63
2022-09-21T22:16:59.893Z,4.13
2022-09-21T22:19:26.243Z,4.73
2022-09-21T22:21:54.388Z,5.10
2022-09-21T22:24:21.538Z,3.63
2022-09-21T22:26:51.047Z,2.50
2022-09-21T22:29:17.486Z,6.83
2022-09-21T22:31:48.148Z,3.60
2022-09-21T22:34:15.150Z,6.50
2022-09-21T22:36:43.454Z,4.03
2022-09-21T22:39:10.040Z,2.30
2022-09-21T22:41:37.614Z,4.67
2022-09-21T22:44:03.961Z,5.63
2022-09-21T22:46:31.004Z,2.53
2022-09-21T22:48:57.555Z,2.10
2022-09-21T22:51:23.927Z,2.57
2022-09-21T22:53:50.711Z,4.13
2022-09-21T22:56:18.614Z,2.20
2022-09-21T22:58:46.137Z,2.07
2022-09-21T23:01:14.721Z,3.50
2022-09-21T23:03:41.815Z,2.27
2022-09-21T23:06:09.595Z,3.10
2022-09-21T23:08:36.300Z,2.43
2022-09-21T23:11:06.902Z,2.30
2022-09-21T23:13:33.246Z,2.60
2022-09-21T23:16:06.993Z,2.90
2022-09-21T23:18:33.837Z,4.30
2022-09-21T23:21:01.236Z,4.33
2022-09-21T23:23:28.325Z,4.03
2022-09-21T23:26:21.166Z,2.13
2022-09-21T23:28:52.375Z,2.53
2022-09-21T23:31:19.037Z,2.50
2022-09-21T23:33:46.457Z,2.40
2022-09-21T23:36:14.172Z,2.30
2022-09-21T23:38:40.920Z,3.70
2022-09-21T23:41:10.374Z,2.77
2022-09-21T23:43:37.728Z,3.23
2022-09-21T23:46:04.728Z,2.10
2022-09-21T23:48:31.540Z,3.13
2022-09-21T23:50:58.216Z,4.53
2022-09-21T23:53:25.152Z,2.33
2022-09-21T23:55:51.509Z,2.27
2022-09-21T23:58:18.031Z,3.67
